sensor_id;sensor_type;location;lat;lon;timestamp;P1;durP1;ratioP1;P2;durP2;ratioP2
82296;SDS011;71899;51.992;8.648;2023-12-22T00:00:12;23.45;;;4.72;;
82296;SDS011;71899;51.992;8.648;2023-12-22T00:02:38;23.42;;;6.53;;
82296;SDS011;71899;51.992;8.648;2023-12-22T00:05:03;16.60;;;3.53;;
82296;SDS011;71899;51.992;8.648;2023-12-22T00:07:29;19.70;;;6.43;;
82296;SDS011;71899;51.992;8.648;2023-12-22T00:09:54;24.10;;;3.53;;
82296;SDS011;71899;51.992;8.648;2023-12-22T00:12:20;19.98;;;4.32;;
82296;SDS011;71899;51.992;8.648;2023-12-22T00:14:46;17.20;;;5.30;;
82296;SDS011;71899;51.992;8.648;2023-12-22T00:17:12;16.75;;;3.45;;
82296;SDS011;71899;51.992;8.648;2023-12-22T00:19:37;31.15;;;7.60;;
82296;SDS011;71899;51.992;8.648;2023-12-22T00:22:03;25.42;;;4.13;;
82296;SDS011;71899;51.992;8.648;2023-12-22T00:24:30;17.50;;;3.65;;
82296;SDS011;71899;51.992;8.648;2023-12-22T00:26:55;18.98;;;4.85;;
82296;SDS011;71899;51.992;8.648;2023-12-22T00:29:20;24.52;;;4.05;;
82296;SDS011;71899;51.992;8.648;2023-12-22T00:31:46;17.98;;;4.63;;
82296;SDS011;71899;51.992;8.648;2023-12-22T00:34:11;20.17;;;4.28;;
82296;SDS011;71899;51.992;8.648;2023-12-22T00:36:36;23.13;;;4.68;;
82296;SDS011;71899;51.992;8.648;2023-12-22T00:39:02;26.00;;;5.03;;
82296;SDS011;71899;51.992;8.648;2023-12-22T00:41:28;19.27;;;4.07;;
82296;SDS011;71899;51.992;8.648;2023-12-22T00:43:55;19.13;;;4.30;;
82296;SDS011;71899;51.992;8.648;2023-12-22T00:46:20;23.90;;;7.50;;
82296;SDS011;71899;51.992;8.648;2023-12-22T00:48:45;19.52;;;2.88;;
82296;SDS011;71899;51.992;8.648;2023-12-22T00:51:12;20.20;;;3.78;;
82296;SDS011;71899;51.992;8.648;2023-12-22T00:53:37;17.90;;;3.38;;
82296;SDS011;71899;51.992;8.648;2023-12-22T00:56:03;14.48;;;3.60;;
82296;SDS011;71899;51.992;8.648;2023-12-22T00:58:29;35.97;;;7.40;;
82296;SDS011;71899;51.992;8.648;2023-12-22T01:00:55;19.08;;;4.43;;
82296;SDS011;71899;51.992;8.648;2023-12-22T01:03:20;26.77;;;5.65;;
82296;SDS011;71899;51.992;8.648;2023-12-22T01:05:46;27.33;;;5.10;;
82296;SDS011;71899;51.992;8.648;2023-12-22T01:08:11;29.77;;;7.15;;
82296;SDS011;71899;51.992;8.648;2023-12-22T01:10:36;30.67;;;4.65;;
82296;SDS011;71899;51.992;8.648;2023-12-22T01:13:02;20.83;;;4.20;;
82296;SDS011;71899;51.992;8.648;2023-12-22T01:15:27;26.48;;;6.35;;
82296;SDS011;71899;51.992;8.648;2023-12-22T01:17:53;24.25;;;5.40;;
82296;SDS011;71899;51.992;8.648;2023-12-22T01:20:18;15.40;;;3.58;;
82296;SDS011;71899;51.992;8.648;2023-12-22T01:22:45;24.60;;;5.00;;
82296;SDS011;71899;51.992;8.648;2023-12-22T01:25:10;19.15;;;4.72;;
82296;SDS011;71899;51.992;8.648;2023-12-22T01:27:36;28.58;;;6.53;;
82296;SDS011;71899;51.992;8.648;2023-12-22T01:30:01;15.90;;;4.55;;
82296;SDS011;71899;51.992;8.648;2023-12-22T01:32:26;24.90;;;5.25;;
82296;SDS011;71899;51.992;8.648;2023-12-22T01:34:58;25.60;;;4.72;;
82296;SDS011;71899;51.992;8.648;2023-12-22T01:37:25;16.17;;;4.05;;
82296;SDS011;71899;51.992;8.648;2023-12-22T01:39:50;13.60;;;2.63;;
82296;SDS011;71899;51.992;8.648;2023-12-22T01:42:16;8.85;;;2.55;;
82296;SDS011;71899;51.992;8.648;2023-12-22T01:44:41;8.75;;;2.83;;
82296;SDS011;71899;51.992;8.648;2023-12-22T01:47:08;12.32;;;2.22;;
82296;SDS011;71899;51.992;8.648;2023-12-22T01:49:33;11.57;;;2.45;;
82296;SDS011;71899;51.992;8.648;2023-12-22T01:51:58;10.68;;;2.40;;
82296;SDS011;71899;51.992;8.648;2023-12-22T01:54:24;12.70;;;2.70;;
82296;SDS011;71899;51.992;8.648;2023-12-22T01:56:50;20.55;;;6.43;;
82296;SDS011;71899;51.992;8.648;2023-12-22T01:59:15;19.50;;;2.92;;
82296;SDS011;71899;51.992;8.648;2023-12-22T02:01:41;24.20;;;4.05;;
82296;SDS011;71899;51.992;8.648;2023-12-22T02:04:10;13.75;;;3.25;;
82296;SDS011;71899;51.992;8.648;2023-12-22T02:06:37;24.85;;;6.57;;
82296;SDS011;71899;51.992;8.648;2023-12-22T02:09:02;28.65;;;4.57;;
82296;SDS011;71899;51.992;8.648;2023-12-22T02:11:29;13.55;;;3.72;;
82296;SDS011;71899;51.992;8.648;2023-12-22T02:13:56;24.65;;;3.83;;
82296;SDS011;71899;51.992;8.648;2023-12-22T02:18:59;16.80;;;4.65;;
82296;SDS011;71899;51.992;8.648;2023-12-22T02:21:58;22.30;;;4.32;;
82296;SDS011;71899;51.992;8.648;2023-12-22T02:24:25;25.05;;;7.90;;
82296;SDS011;71899;51.992;8.648;2023-12-22T02:26:51;19.45;;;3.53;;
82296;SDS011;71899;51.992;8.648;2023-12-22T02:29:20;20.83;;;4.43;;
82296;SDS011;71899;51.992;8.648;2023-12-22T02:31:49;26.30;;;4.22;;
82296;SDS011;71899;51.992;8.648;2023-12-22T02:34:21;19.27;;;3.80;;
82296;SDS011;71899;51.992;8.648;2023-12-22T02:36:48;21.10;;;4.28;;
82296;SDS011;71899;51.992;8.648;2023-12-22T02:39:17;23.58;;;3.78;;
82296;SDS011;71899;51.992;8.648;2023-12-22T02:41:44;22.05;;;3.42;;
82296;SDS011;71899;51.992;8.648;2023-12-22T02:44:11;22.90;;;4.45;;
82296;SDS011;71899;51.992;8.648;2023-12-22T02:46:38;22.85;;;4.50;;
82296;SDS011;71899;51.992;8.648;2023-12-22T02:49:03;18.33;;;4.78;;
82296;SDS011;71899;51.992;8.648;2023-12-22T02:51:28;20.13;;;3.08;;
82296;SDS011;71899;51.992;8.648;2023-12-22T02:53:54;20.73;;;3.40;;
82296;SDS011;71899;51.992;8.648;2023-12-22T02:56:19;14.23;;;2.83;;
82296;SDS011;71899;51.992;8.648;2023-12-22T02:58:44;20.42;;;4.10;;
82296;SDS011;71899;51.992;8.648;2023-12-22T03:01:10;17.15;;;3.75;;
82296;SDS011;71899;51.992;8.648;2023-12-22T03:03:35;13.43;;;3.30;;
82296;SDS011;71899;51.992;8.648;2023-12-22T03:06:01;22.83;;;4.03;;
82296;SDS011;71899;51.992;8.648;2023-12-22T03:08:26;15.32;;;3.58;;
82296;SDS011;71899;51.992;8.648;2023-12-22T03:10:52;26.20;;;5.75;;
82296;SDS011;71899;51.992;8.648;2023-12-22T03:13:17;25.50;;;3.80;;
82296;SDS011;71899;51.992;8.648;2023-12-22T03:15:43;16.20;;;3.97;;
82296;SDS011;71899;51.992;8.648;2023-12-22T03:18:08;20.75;;;3.40;;
82296;SDS011;71899;51.992;8.648;2023-12-22T03:20:33;13.02;;;3.05;;
82296;SDS011;71899;51.992;8.648;2023-12-22T03:22:59;23.63;;;4.38;;
82296;SDS011;71899;51.992;8.648;2023-12-22T03:25:24;26.30;;;4.80;;
82296;SDS011;71899;51.992;8.648;2023-12-22T03:27:50;12.40;;;3.55;;
82296;SDS011;71899;51.992;8.648;2023-12-22T03:30:15;22.10;;;5.32;;
82296;SDS011;71899;51.992;8.648;2023-12-22T03:32:40;16.65;;;3.47;;
82296;SDS011;71899;51.992;8.648;2023-12-22T03:35:07;20.15;;;4.15;;
82296;SDS011;71899;51.992;8.648;2023-12-22T03:37:32;15.15;;;4.05;;
82296;SDS011;71899;51.992;8.648;2023-12-22T03:39:58;27.77;;;5.18;;
82296;SDS011;71899;51.992;8.648;2023-12-22T03:42:23;28.67;;;6.20;;
82296;SDS011;71899;51.992;8.648;2023-12-22T03:44:48;22.60;;;3.60;;
82296;SDS011;71899;51.992;8.648;2023-12-22T03:47:14;14.80;;;3.42;;
82296;SDS011;71899;51.992;8.648;2023-12-22T03:49:40;18.17;;;3.78;;
82296;SDS011;71899;51.992;8.648;2023-12-22T03:52:05;28.95;;;4.13;;
82296;SDS011;71899;51.992;8.648;2023-12-22T03:54:31;18.92;;;3.00;;
82296;SDS011;71899;51.992;8.648;2023-12-22T03:56:56;16.40;;;3.85;;
82296;SDS011;71899;51.992;8.648;2023-12-22T03:59:22;17.05;;;4.45;;
82296;SDS011;71899;51.992;8.648;2023-12-22T04:01:50;22.17;;;4.30;;
82296;SDS011;71899;51.992;8.648;2023-12-22T04:04:17;18.23;;;4.70;;
82296;SDS011;71899;51.992;8.648;2023-12-22T04:06:43;18.13;;;3.67;;
82296;SDS011;71899;51.992;8.648;2023-12-22T04:09:08;18.52;;;3.88;;
82296;SDS011;71899;51.992;8.648;2023-12-22T04:11:33;16.83;;;2.88;;
82296;SDS011;71899;51.992;8.648;2023-12-22T04:14:01;16.30;;;2.58;;
82296;SDS011;71899;51.992;8.648;2023-12-22T04:16:26;20.88;;;3.85;;
82296;SDS011;71899;51.992;8.648;2023-12-22T04:18:53;15.98;;;3.38;;
82296;SDS011;71899;51.992;8.648;2023-12-22T04:21:20;22.92;;;4.82;;
82296;SDS011;71899;51.992;8.648;2023-12-22T04:23:47;18.67;;;2.58;;
82296;SDS011;71899;51.992;8.648;2023-12-22T04:26:12;25.08;;;3.80;;
82296;SDS011;71899;51.992;8.648;2023-12-22T04:28:38;19.45;;;3.58;;
82296;SDS011;71899;51.992;8.648;2023-12-22T04:31:03;12.68;;;5.10;;
82296;SDS011;71899;51.992;8.648;2023-12-22T04:33:29;22.80;;;6.63;;
82296;SDS011;71899;51.992;8.648;2023-12-22T04:35:54;16.55;;;2.38;;
82296;SDS011;71899;51.992;8.648;2023-12-22T04:38:20;11.82;;;3.13;;
82296;SDS011;71899;51.992;8.648;2023-12-22T04:40:46;14.80;;;3.45;;
82296;SDS011;71899;51.992;8.648;2023-12-22T04:43:11;12.55;;;3.33;;
82296;SDS011;71899;51.992;8.648;2023-12-22T04:45:37;12.90;;;2.60;;
82296;SDS011;71899;51.992;8.648;2023-12-22T04:48:02;20.90;;;3.28;;
82296;SDS011;71899;51.992;8.648;2023-12-22T04:50:28;8.38;;;2.45;;
82296;SDS011;71899;51.992;8.648;2023-12-22T04:52:53;12.95;;;3.42;;
82296;SDS011;71899;51.992;8.648;2023-12-22T04:55:19;9.25;;;2.38;;
82296;SDS011;71899;51.992;8.648;2023-12-22T04:57:45;12.55;;;3.13;;
82296;SDS011;71899;51.992;8.648;2023-12-22T05:00:12;8.13;;;2.25;;
82296;SDS011;71899;51.992;8.648;2023-12-22T05:02:38;10.82;;;2.92;;
82296;SDS011;71899;51.992;8.648;2023-12-22T05:05:03;10.98;;;2.97;;
82296;SDS011;71899;51.992;8.648;2023-12-22T05:07:29;9.20;;;1.98;;
82296;SDS011;71899;51.992;8.648;2023-12-22T05:09:55;14.18;;;2.50;;
82296;SDS011;71899;51.992;8.648;2023-12-22T05:12:20;5.60;;;1.70;;
82296;SDS011;71899;51.992;8.648;2023-12-22T05:14:46;9.00;;;1.75;;
82296;SDS011;71899;51.992;8.648;2023-12-22T05:17:11;6.85;;;2.08;;
82296;SDS011;71899;51.992;8.648;2023-12-22T05:19:37;7.18;;;2.60;;
82296;SDS011;71899;51.992;8.648;2023-12-22T05:22:03;6.50;;;1.33;;
82296;SDS011;71899;51.992;8.648;2023-12-22T05:24:28;7.85;;;1.95;;
82296;SDS011;71899;51.992;8.648;2023-12-22T05:26:54;12.23;;;1.73;;
82296;SDS011;71899;51.992;8.648;2023-12-22T05:29:19;7.43;;;1.63;;
82296;SDS011;71899;51.992;8.648;2023-12-22T05:31:44;8.57;;;1.83;;
82296;SDS011;71899;51.992;8.648;2023-12-22T05:34:10;2.70;;;1.35;;
82296;SDS011;71899;51.992;8.648;2023-12-22T05:36:35;3.70;;;1.20;;
82296;SDS011;71899;51.992;8.648;2023-12-22T05:39:02;4.03;;;1.42;;
82296;SDS011;71899;51.992;8.648;2023-12-22T05:41:27;3.92;;;1.10;;
82296;SDS011;71899;51.992;8.648;2023-12-22T05:43:53;6.25;;;1.80;;
82296;SDS011;71899;51.992;8.648;2023-12-22T05:46:19;12.98;;;2.55;;
82296;SDS011;71899;51.992;8.648;2023-12-22T05:48:44;6.88;;;2.63;;
82296;SDS011;71899;51.992;8.648;2023-12-22T05:51:10;8.60;;;2.80;;
82296;SDS011;71899;51.992;8.648;2023-12-22T05:53:39;6.35;;;1.73;;
82296;SDS011;71899;51.992;8.648;2023-12-22T05:56:05;9.20;;;2.45;;
82296;SDS011;71899;51.992;8.648;2023-12-22T05:58:42;5.55;;;1.63;;
82296;SDS011;71899;51.992;8.648;2023-12-22T06:01:07;10.52;;;2.92;;
82296;SDS011;71899;51.992;8.648;2023-12-22T06:03:33;12.13;;;2.53;;
82296;SDS011;71899;51.992;8.648;2023-12-22T06:05:58;18.67;;;2.95;;
82296;SDS011;71899;51.992;8.648;2023-12-22T06:08:23;9.88;;;2.15;;
82296;SDS011;71899;51.992;8.648;2023-12-22T06:10:49;12.88;;;2.60;;
82296;SDS011;71899;51.992;8.648;2023-12-22T06:13:14;11.10;;;2.05;;
82296;SDS011;71899;51.992;8.648;2023-12-22T06:15:40;11.55;;;2.88;;
82296;SDS011;71899;51.992;8.648;2023-12-22T06:18:06;11.10;;;1.77;;
82296;SDS011;71899;51.992;8.648;2023-12-22T06:20:31;10.20;;;2.20;;
82296;SDS011;71899;51.992;8.648;2023-12-22T06:22:56;12.77;;;2.20;;
82296;SDS011;71899;51.992;8.648;2023-12-22T06:25:21;21.15;;;2.40;;
82296;SDS011;71899;51.992;8.648;2023-12-22T06:27:48;7.95;;;2.53;;
82296;SDS011;71899;51.992;8.648;2023-12-22T06:30:13;16.05;;;3.40;;
82296;SDS011;71899;51.992;8.648;2023-12-22T06:32:39;13.20;;;2.97;;
82296;SDS011;71899;51.992;8.648;2023-12-22T06:35:06;10.38;;;2.20;;
82296;SDS011;71899;51.992;8.648;2023-12-22T06:37:32;13.50;;;3.33;;
82296;SDS011;71899;51.992;8.648;2023-12-22T06:39:58;13.57;;;3.28;;
82296;SDS011;71899;51.992;8.648;2023-12-22T06:42:23;11.68;;;3.22;;
82296;SDS011;71899;51.992;8.648;2023-12-22T06:44:48;10.15;;;2.92;;
82296;SDS011;71899;51.992;8.648;2023-12-22T06:47:14;8.20;;;2.28;;
82296;SDS011;71899;51.992;8.648;2023-12-22T06:49:39;14.35;;;3.05;;
82296;SDS011;71899;51.992;8.648;2023-12-22T06:52:06;8.57;;;3.20;;
82296;SDS011;71899;51.992;8.648;2023-12-22T06:54:31;24.67;;;3.13;;
82296;SDS011;71899;51.992;8.648;2023-12-22T06:56:57;11.13;;;3.95;;
82296;SDS011;71899;51.992;8.648;2023-12-22T06:59:22;14.98;;;4.25;;
82296;SDS011;71899;51.992;8.648;2023-12-22T07:01:48;17.17;;;3.03;;
82296;SDS011;71899;51.992;8.648;2023-12-22T07:04:14;14.82;;;2.95;;
82296;SDS011;71899;51.992;8.648;2023-12-22T07:06:39;18.50;;;4.05;;
82296;SDS011;71899;51.992;8.648;2023-12-22T07:11:40;18.60;;;5.30;;
82296;SDS011;71899;51.992;8.648;2023-12-22T07:14:06;10.30;;;3.22;;
82296;SDS011;71899;51.992;8.648;2023-12-22T07:16:32;15.25;;;2.25;;
82296;SDS011;71899;51.992;8.648;2023-12-22T07:18:58;13.85;;;3.58;;
82296;SDS011;71899;51.992;8.648;2023-12-22T07:21:23;10.40;;;2.78;;
82296;SDS011;71899;51.992;8.648;2023-12-22T07:23:49;11.43;;;3.85;;
82296;SDS011;71899;51.992;8.648;2023-12-22T07:26:14;15.93;;;3.53;;
82296;SDS011;71899;51.992;8.648;2023-12-22T07:28:39;15.68;;;2.42;;
82296;SDS011;71899;51.992;8.648;2023-12-22T07:31:05;14.90;;;3.38;;
82296;SDS011;71899;51.992;8.648;2023-12-22T07:33:31;11.63;;;3.30;;
82296;SDS011;71899;51.992;8.648;2023-12-22T07:35:56;16.23;;;2.88;;
82296;SDS011;71899;51.992;8.648;2023-12-22T07:38:21;14.43;;;3.60;;
82296;SDS011;71899;51.992;8.648;2023-12-22T07:40:47;10.45;;;2.83;;
82296;SDS011;71899;51.992;8.648;2023-12-22T07:43:12;21.92;;;5.60;;
82296;SDS011;71899;51.992;8.648;2023-12-22T07:45:38;15.25;;;2.95;;
82296;SDS011;71899;51.992;8.648;2023-12-22T07:48:04;17.63;;;3.55;;
82296;SDS011;71899;51.992;8.648;2023-12-22T07:50:30;13.45;;;3.30;;
82296;SDS011;71899;51.992;8.648;2023-12-22T07:52:55;18.05;;;3.20;;
82296;SDS011;71899;51.992;8.648;2023-12-22T07:55:21;23.27;;;5.00;;
82296;SDS011;71899;51.992;8.648;2023-12-22T07:57:47;16.42;;;3.38;;
82296;SDS011;71899;51.992;8.648;2023-12-22T08:00:15;24.67;;;3.75;;
82296;SDS011;71899;51.992;8.648;2023-12-22T08:02:40;11.68;;;3.30;;
82296;SDS011;71899;51.992;8.648;2023-12-22T08:05:06;13.82;;;3.05;;
82296;SDS011;71899;51.992;8.648;2023-12-22T08:07:32;15.68;;;3.58;;
82296;SDS011;71899;51.992;8.648;2023-12-22T08:09:58;18.48;;;4.22;;
82296;SDS011;71899;51.992;8.648;2023-12-22T08:12:23;11.25;;;2.97;;
82296;SDS011;71899;51.992;8.648;2023-12-22T08:14:49;14.98;;;3.67;;
82296;SDS011;71899;51.992;8.648;2023-12-22T08:17:17;12.25;;;2.95;;
82296;SDS011;71899;51.992;8.648;2023-12-22T08:19:43;12.43;;;3.35;;
82296;SDS011;71899;51.992;8.648;2023-12-22T08:22:11;16.92;;;4.10;;
82296;SDS011;71899;51.992;8.648;2023-12-22T08:24:40;10.88;;;3.33;;
82296;SDS011;71899;51.992;8.648;2023-12-22T08:27:06;13.00;;;4.82;;
82296;SDS011;71899;51.992;8.648;2023-12-22T08:29:34;16.70;;;4.32;;
82296;SDS011;71899;51.992;8.648;2023-12-22T08:32:00;12.10;;;3.90;;
82296;SDS011;71899;51.992;8.648;2023-12-22T08:34:26;13.85;;;3.10;;
82296;SDS011;71899;51.992;8.648;2023-12-22T08:36:52;17.83;;;4.10;;
82296;SDS011;71899;51.992;8.648;2023-12-22T08:39:18;18.50;;;4.60;;
82296;SDS011;71899;51.992;8.648;2023-12-22T08:41:44;20.00;;;4.25;;
82296;SDS011;71899;51.992;8.648;2023-12-22T08:44:10;23.35;;;3.17;;
82296;SDS011;71899;51.992;8.648;2023-12-22T08:46:35;22.73;;;3.97;;
82296;SDS011;71899;51.992;8.648;2023-12-22T08:49:04;12.40;;;2.47;;
82296;SDS011;71899;51.992;8.648;2023-12-22T08:51:29;12.85;;;3.00;;
82296;SDS011;71899;51.992;8.648;2023-12-22T08:53:55;17.35;;;3.33;;
82296;SDS011;71899;51.992;8.648;2023-12-22T08:58:51;14.80;;;3.28;;
82296;SDS011;71899;51.992;8.648;2023-12-22T09:01:19;17.52;;;4.22;;
82296;SDS011;71899;51.992;8.648;2023-12-22T09:03:45;13.10;;;3.17;;
82296;SDS011;71899;51.992;8.648;2023-12-22T09:06:14;18.95;;;3.08;;
82296;SDS011;71899;51.992;8.648;2023-12-22T09:08:41;28.50;;;4.93;;
82296;SDS011;71899;51.992;8.648;2023-12-22T09:11:06;14.20;;;2.53;;
82296;SDS011;71899;51.992;8.648;2023-12-22T09:13:32;11.18;;;3.13;;
82296;SDS011;71899;51.992;8.648;2023-12-22T09:15:58;10.40;;;3.38;;
82296;SDS011;71899;51.992;8.648;2023-12-22T09:18:23;9.98;;;2.97;;
82296;SDS011;71899;51.992;8.648;2023-12-22T09:20:48;13.55;;;4.18;;
82296;SDS011;71899;51.992;8.648;2023-12-22T09:23:14;17.98;;;2.67;;
82296;SDS011;71899;51.992;8.648;2023-12-22T09:25:39;8.60;;;2.50;;
82296;SDS011;71899;51.992;8.648;2023-12-22T09:28:05;14.38;;;3.75;;
82296;SDS011;71899;51.992;8.648;2023-12-22T09:30:31;12.30;;;2.95;;
82296;SDS011;71899;51.992;8.648;2023-12-22T09:32:56;14.57;;;2.33;;
82296;SDS011;71899;51.992;8.648;2023-12-22T09:35:22;12.13;;;2.83;;
82296;SDS011;71899;51.992;8.648;2023-12-22T09:37:49;6.95;;;3.67;;
82296;SDS011;71899;51.992;8.648;2023-12-22T09:40:15;9.38;;;2.55;;
82296;SDS011;71899;51.992;8.648;2023-12-22T09:42:40;10.52;;;2.63;;
82296;SDS011;71899;51.992;8.648;2023-12-22T09:45:08;13.98;;;3.10;;
82296;SDS011;71899;51.992;8.648;2023-12-22T09:47:37;12.93;;;2.80;;
82296;SDS011;71899;51.992;8.648;2023-12-22T09:50:04;11.48;;;3.08;;
82296;SDS011;71899;51.992;8.648;2023-12-22T09:52:30;6.13;;;2.65;;
82296;SDS011;71899;51.992;8.648;2023-12-22T09:54:57;10.55;;;2.95;;
82296;SDS011;71899;51.992;8.648;2023-12-22T09:57:23;10.48;;;2.92;;
82296;SDS011;71899;51.992;8.648;2023-12-22T09:59:49;7.53;;;2.20;;
82296;SDS011;71899;51.992;8.648;2023-12-22T10:02:17;13.38;;;2.40;;
82296;SDS011;71899;51.992;8.648;2023-12-22T10:04:43;4.10;;;1.63;;
82296;SDS011;71899;51.992;8.648;2023-12-22T10:07:08;10.18;;;2.75;;
82296;SDS011;71899;51.992;8.648;2023-12-22T10:09:35;13.63;;;2.95;;
82296;SDS011;71899;51.992;8.648;2023-12-22T10:12:01;8.43;;;2.83;;
82296;SDS011;71899;51.992;8.648;2023-12-22T10:14:28;14.20;;;2.45;;
82296;SDS011;71899;51.992;8.648;2023-12-22T10:16:54;3.80;;;1.52;;
82296;SDS011;71899;51.992;8.648;2023-12-22T10:19:21;9.27;;;1.77;;
82296;SDS011;71899;51.992;8.648;2023-12-22T10:21:48;5.95;;;1.85;;
82296;SDS011;71899;51.992;8.648;2023-12-22T10:27:05;8.20;;;2.08;;
82296;SDS011;71899;51.992;8.648;2023-12-22T10:29:31;10.82;;;2.47;;
82296;SDS011;71899;51.992;8.648;2023-12-22T10:31:57;9.00;;;1.40;;
82296;SDS011;71899;51.992;8.648;2023-12-22T10:34:23;10.73;;;2.38;;
82296;SDS011;71899;51.992;8.648;2023-12-22T10:36:48;11.13;;;2.90;;
82296;SDS011;71899;51.992;8.648;2023-12-22T10:39:13;2.97;;;1.23;;
82296;SDS011;71899;51.992;8.648;2023-12-22T10:41:40;10.43;;;3.40;;
82296;SDS011;71899;51.992;8.648;2023-12-22T10:44:05;7.40;;;2.20;;
82296;SDS011;71899;51.992;8.648;2023-12-22T10:46:31;8.55;;;1.75;;
82296;SDS011;71899;51.992;8.648;2023-12-22T10:48:59;4.05;;;1.50;;
82296;SDS011;71899;51.992;8.648;2023-12-22T10:51:24;4.63;;;1.60;;
82296;SDS011;71899;51.992;8.648;2023-12-22T10:53:51;2.67;;;1.15;;
82296;SDS011;71899;51.992;8.648;2023-12-22T10:56:17;8.60;;;1.48;;
82296;SDS011;71899;51.992;8.648;2023-12-22T10:58:42;7.47;;;1.70;;
82296;SDS011;71899;51.992;8.648;2023-12-22T11:01:10;5.30;;;1.60;;
82296;SDS011;71899;51.992;8.648;2023-12-22T11:03:39;6.72;;;1.73;;
82296;SDS011;71899;51.992;8.648;2023-12-22T11:06:07;6.70;;;2.55;;
82296;SDS011;71899;51.992;8.648;2023-12-22T11:08:37;4.95;;;1.73;;
82296;SDS011;71899;51.992;8.648;2023-12-22T11:11:07;5.53;;;1.63;;
82296;SDS011;71899;51.992;8.648;2023-12-22T11:13:39;5.47;;;1.40;;
82296;SDS011;71899;51.992;8.648;2023-12-22T11:16:05;12.50;;;2.83;;
82296;SDS011;71899;51.992;8.648;2023-12-22T11:18:31;3.30;;;1.10;;
82296;SDS011;71899;51.992;8.648;2023-12-22T11:20:59;6.93;;;2.05;;
82296;SDS011;71899;51.992;8.648;2023-12-22T11:23:26;4.72;;;1.17;;
82296;SDS011;71899;51.992;8.648;2023-12-22T11:25:55;3.95;;;1.77;;
82296;SDS011;71899;51.992;8.648;2023-12-22T11:28:24;10.00;;;2.58;;
82296;SDS011;71899;51.992;8.648;2023-12-22T11:30:50;5.88;;;1.38;;
82296;SDS011;71899;51.992;8.648;2023-12-22T11:33:17;5.10;;;1.60;;
82296;SDS011;71899;51.992;8.648;2023-12-22T11:35:43;7.43;;;1.83;;
82296;SDS011;71899;51.992;8.648;2023-12-22T11:38:11;7.25;;;1.85;;
82296;SDS011;71899;51.992;8.648;2023-12-22T11:40:36;8.63;;;2.58;;
82296;SDS011;71899;51.992;8.648;2023-12-22T11:43:02;8.55;;;2.05;;
82296;SDS011;71899;51.992;8.648;2023-12-22T11:45:31;5.18;;;1.60;;
82296;SDS011;71899;51.992;8.648;2023-12-22T11:48:04;10.02;;;1.42;;
82296;SDS011;71899;51.992;8.648;2023-12-22T11:50:31;10.52;;;1.73;;
82296;SDS011;71899;51.992;8.648;2023-12-22T11:52:56;7.10;;;2.05;;
82296;SDS011;71899;51.992;8.648;2023-12-22T12:03:59;10.25;;;3.03;;
82296;SDS011;71899;51.992;8.648;2023-12-22T12:08:50;8.33;;;2.27;;
82296;SDS011;71899;51.992;8.648;2023-12-22T12:11:16;6.65;;;1.63;;
82296;SDS011;71899;51.992;8.648;2023-12-22T12:13:43;4.13;;;1.73;;
82296;SDS011;71899;51.992;8.648;2023-12-22T12:16:13;8.02;;;2.00;;
82296;SDS011;71899;51.992;8.648;2023-12-22T12:18:39;4.55;;;1.50;;
82296;SDS011;71899;51.992;8.648;2023-12-22T12:21:09;4.45;;;2.03;;
82296;SDS011;71899;51.992;8.648;2023-12-22T12:23:35;2.30;;;1.25;;
82296;SDS011;71899;51.992;8.648;2023-12-22T12:26:01;6.28;;;2.08;;
82296;SDS011;71899;51.992;8.648;2023-12-22T12:28:32;4.78;;;1.55;;
82296;SDS011;71899;51.992;8.648;2023-12-22T12:31:02;2.53;;;1.48;;
82296;SDS011;71899;51.992;8.648;2023-12-22T12:33:29;6.25;;;2.40;;
82296;SDS011;71899;51.992;8.648;2023-12-22T12:35:56;2.40;;;1.70;;
82296;SDS011;71899;51.992;8.648;2023-12-22T12:38:36;4.20;;;1.83;;
82296;SDS011;71899;51.992;8.648;2023-12-22T12:41:07;2.28;;;0.98;;
82296;SDS011;71899;51.992;8.648;2023-12-22T12:43:34;4.05;;;1.10;;
82296;SDS011;71899;51.992;8.648;2023-12-22T12:46:06;2.47;;;1.35;;
82296;SDS011;71899;51.992;8.648;2023-12-22T12:48:31;5.05;;;1.45;;
82296;SDS011;71899;51.992;8.648;2023-12-22T12:51:03;4.40;;;2.30;;
82296;SDS011;71899;51.992;8.648;2023-12-22T12:53:33;6.05;;;2.28;;
82296;SDS011;71899;51.992;8.648;2023-12-22T12:56:01;4.13;;;1.33;;
82296;SDS011;71899;51.992;8.648;2023-12-22T12:58:27;4.68;;;1.63;;
82296;SDS011;71899;51.992;8.648;2023-12-22T13:01:05;3.90;;;1.45;;
82296;SDS011;71899;51.992;8.648;2023-12-22T13:03:31;4.30;;;1.48;;
82296;SDS011;71899;51.992;8.648;2023-12-22T13:06:07;1.70;;;0.95;;
82296;SDS011;71899;51.992;8.648;2023-12-22T13:08:33;3.22;;;1.48;;
82296;SDS011;71899;51.992;8.648;2023-12-22T13:11:01;4.38;;;1.50;;
82296;SDS011;71899;51.992;8.648;2023-12-22T13:13:27;2.10;;;0.95;;
82296;SDS011;71899;51.992;8.648;2023-12-22T13:15:52;3.35;;;0.93;;
82296;SDS011;71899;51.992;8.648;2023-12-22T13:18:18;1.95;;;1.65;;
82296;SDS011;71899;51.992;8.648;2023-12-22T13:20:43;1.40;;;1.05;;
82296;SDS011;71899;51.992;8.648;2023-12-22T13:23:09;2.10;;;1.35;;
82296;SDS011;71899;51.992;8.648;2023-12-22T13:25:38;3.13;;;0.95;;
82296;SDS011;71899;51.992;8.648;2023-12-22T13:28:07;2.97;;;1.20;;
82296;SDS011;71899;51.992;8.648;2023-12-22T13:33:03;4.22;;;1.10;;
82296;SDS011;71899;51.992;8.648;2023-12-22T13:35:29;1.63;;;1.00;;
82296;SDS011;71899;51.992;8.648;2023-12-22T13:37:55;2.47;;;1.42;;
82296;SDS011;71899;51.992;8.648;2023-12-22T13:40:21;1.98;;;1.30;;
82296;SDS011;71899;51.992;8.648;2023-12-22T13:42:58;4.68;;;1.48;;
82296;SDS011;71899;51.992;8.648;2023-12-22T13:45:27;2.25;;;0.82;;
82296;SDS011;71899;51.992;8.648;2023-12-22T13:47:52;2.85;;;0.95;;
82296;SDS011;71899;51.992;8.648;2023-12-22T13:50:18;1.92;;;1.10;;
82296;SDS011;71899;51.992;8.648;2023-12-22T13:52:44;1.00;;;0.88;;
82296;SDS011;71899;51.992;8.648;2023-12-22T13:55:13;2.28;;;1.38;;
82296;SDS011;71899;51.992;8.648;2023-12-22T13:57:40;4.00;;;2.13;;
82296;SDS011;71899;51.992;8.648;2023-12-22T14:02:47;1.08;;;1.02;;
82296;SDS011;71899;51.992;8.648;2023-12-22T14:05:15;3.55;;;1.60;;
82296;SDS011;71899;51.992;8.648;2023-12-22T14:07:44;2.25;;;1.05;;
82296;SDS011;71899;51.992;8.648;2023-12-22T14:10:10;1.42;;;0.90;;
82296;SDS011;71899;51.992;8.648;2023-12-22T14:12:36;1.08;;;0.90;;
82296;SDS011;71899;51.992;8.648;2023-12-22T14:15:05;1.48;;;1.20;;
82296;SDS011;71899;51.992;8.648;2023-12-22T14:17:38;4.10;;;1.30;;
82296;SDS011;71899;51.992;8.648;2023-12-22T14:20:04;2.85;;;1.17;;
82296;SDS011;71899;51.992;8.648;2023-12-22T14:22:30;2.97;;;1.17;;
82296;SDS011;71899;51.992;8.648;2023-12-22T14:24:55;1.58;;;0.93;;
82296;SDS011;71899;51.992;8.648;2023-12-22T14:27:22;1.83;;;1.10;;
82296;SDS011;71899;51.992;8.648;2023-12-22T14:29:48;2.08;;;0.90;;
82296;SDS011;71899;51.992;8.648;2023-12-22T14:32:14;1.40;;;1.10;;
82296;SDS011;71899;51.992;8.648;2023-12-22T14:34:44;1.52;;;0.80;;
82296;SDS011;71899;51.992;8.648;2023-12-22T14:37:12;1.33;;;0.98;;
82296;SDS011;71899;51.992;8.648;2023-12-22T14:39:38;1.50;;;1.02;;
82296;SDS011;71899;51.992;8.648;2023-12-22T14:42:06;2.35;;;1.08;;
82296;SDS011;71899;51.992;8.648;2023-12-22T14:44:31;1.83;;;0.80;;
82296;SDS011;71899;51.992;8.648;2023-12-22T14:46:56;8.48;;;1.48;;
82296;SDS011;71899;51.992;8.648;2023-12-22T14:49:22;1.38;;;1.00;;
82296;SDS011;71899;51.992;8.648;2023-12-22T14:51:49;1.33;;;1.08;;
82296;SDS011;71899;51.992;8.648;2023-12-22T14:54:19;2.60;;;1.65;;
82296;SDS011;71899;51.992;8.648;2023-12-22T14:56:44;5.43;;;1.10;;
82296;SDS011;71899;51.992;8.648;2023-12-22T14:59:10;1.90;;;1.58;;
82296;SDS011;71899;51.992;8.648;2023-12-22T15:01:36;0.90;;;0.80;;